Time;durP1;ratioP1;P1;durP2;ratioP2;P2;SDS_P1;SDS_P2;PMS_P1;PMS_P2;Temp;Humidity;BMP_temperature;BMP_pressure;BME280_temperature;BME280_humidity;BME280_pressure;Samples;Min_cycle;Max_cycle;Signal;HPM_P1;HPM_P2
2023/08/01 00:00:47;;;;;;;;;1.67;1.67;;;;;24.15;100.00;100074.16;5021200;28;70663;-84
2023/08/01 00:03:13;;;;;;;;;3.33;2.00;;;;;24.15;100.00;100077.72;5027355;28;45224;-84
2023/08/01 00:05:44;;;;;;;;;1.67;1.67;;;;;24.15;100.00;100077.72;5037358;28;45352;-83
2023/08/01 00:08:09;;;;;;;;;1.00;1.00;;;;;24.19;100.00;100075.72;5037623;28;45206;-83
2023/08/01 00:10:34;;;;;;;;;3.33;2.00;;;;;24.23;100.00;100085.34;5024357;28;45194;-83
2023/08/01 00:13:00;;;;;;;;;1.00;1.00;;;;;24.18;100.00;100076.66;5029281;28;64376;-84
2023/08/01 00:15:25;;;;;;;;;2.00;2.00;;;;;24.16;100.00;100067.78;5034092;28;62527;-83
2023/08/01 00:17:50;;;;;;;;;1.00;1.00;;;;;24.18;100.00;100082.94;5034309;28;45480;-83
2023/08/01 00:20:16;;;;;;;;;3.00;2.00;;;;;24.15;100.00;100085.81;5030387;28;46904;-83
2023/08/01 00:22:41;;;;;;;;;2.00;1.00;;;;;24.19;100.00;100078.41;5032751;28;45435;-84
2023/08/01 00:25:07;;;;;;;;;3.33;2.00;;;;;24.20;100.00;100082.84;5031076;28;45372;-84
2023/08/01 00:27:32;;;;;;;;;2.00;1.00;;;;;24.18;100.00;100069.47;5032026;28;45213;-84
2023/08/01 00:29:58;;;;;;;;;0.67;0.67;;;;;24.19;100.00;100065.81;5033561;28;67783;-84
2023/08/01 00:32:23;;;;;;;;;1.00;1.00;;;;;24.18;100.00;100082.94;5029507;28;45370;-83
2023/08/01 00:34:50;;;;;;;;;0.00;0.00;;;;;24.16;100.00;100063.25;5030065;28;61119;-85
2023/08/01 00:37:16;;;;;;;;;1.67;1.00;;;;;24.10;100.00;100066.31;5029295;28;45579;-83
2023/08/01 00:39:41;;;;;;;;;1.33;1.33;;;;;24.13;100.00;100054.47;5034698;28;70197;-82
2023/08/01 00:42:06;;;;;;;;;1.00;1.00;;;;;24.05;100.00;100053.09;5032421;28;45357;-83
2023/08/01 00:44:32;;;;;;;;;2.67;1.33;;;;;23.96;100.00;100053.59;5016322;28;59836;-85
2023/08/01 00:46:57;;;;;;;;;1.67;1.00;;;;;24.01;100.00;100061.44;5029952;28;59488;-83
2023/08/01 00:49:22;;;;;;;;;1.33;1.33;;;;;23.95;100.00;100061.78;5022854;28;65532;-84
2023/08/01 00:51:48;;;;;;;;;2.00;2.00;;;;;23.87;100.00;100059.53;5036390;28;49246;-82
2023/08/01 00:54:14;;;;;;;;;1.67;1.67;;;;;23.91;100.00;100063.78;5035347;28;47006;-84
2023/08/01 00:56:40;;;;;;;;;3.00;1.00;;;;;23.94;100.00;100060.06;5030017;28;45461;-84
2023/08/01 00:59:05;;;;;;;;;3.00;2.00;;;;;23.93;100.00;100053.81;5020102;28;70914;-84
2023/08/01 01:01:31;;;;;;;;;3.00;2.00;;;;;23.95;100.00;100051.88;5030008;28;62427;-84
2023/08/01 01:03:56;;;;;;;;;1.00;1.00;;;;;23.96;100.00;100047.34;5029147;28;50775;-83
2023/08/01 01:06:27;;;;;;;;;1.00;1.00;;;;;23.99;100.00;100050.75;5031408;28;58401;-85
2023/08/01 01:08:54;;;;;;;;;1.00;1.00;;;;;23.98;100.00;100067.03;5035331;28;46076;-83
2023/08/01 01:11:19;;;;;;;;;1.33;1.00;;;;;23.95;100.00;100095.03;5028840;28;45330;-84
2023/08/01 01:13:44;;;;;;;;;4.00;1.00;;;;;23.95;100.00;100130.06;5034551;28;63237;-83
2023/08/01 01:16:10;;;;;;;;;0.33;0.33;;;;;23.72;100.00;100141.28;5026182;28;50279;-83
2023/08/01 01:18:35;;;;;;;;;0.00;0.00;;;;;23.51;100.00;100137.88;5030424;28;65730;-85
2023/08/01 01:21:00;;;;;;;;;0.00;0.00;;;;;23.28;100.00;100147.19;5024528;28;61285;-83
2023/08/01 01:23:27;;;;;;;;;0.67;0.00;;;;;23.11;100.00;100158.81;5024439;28;45415;-84
2023/08/01 01:25:54;;;;;;;;;0.00;0.00;;;;;22.95;100.00;100147.09;5029518;28;45349;-85
2023/08/01 01:28:20;;;;;;;;;0.00;0.00;;;;;22.85;100.00;100143.06;5017997;28;47769;-85
2023/08/01 01:30:46;;;;;;;;;0.00;0.00;;;;;22.74;100.00;100149.00;5029881;28;62197;-87
2023/08/01 01:33:11;;;;;;;;;0.00;0.00;;;;;22.69;100.00;100154.66;5015605;28;45448;-86
2023/08/01 01:35:36;;;;;;;;;0.00;0.00;;;;;22.67;100.00;100158.34;5030303;28;50572;-85
2023/08/01 01:38:05;;;;;;;;;0.33;0.00;;;;;22.66;100.00;100164.69;5025078;28;68437;-85
2023/08/01 01:40:31;;;;;;;;;0.00;0.00;;;;;22.67;100.00;100161.03;5031554;28;45503;-85
2023/08/01 01:42:57;;;;;;;;;0.00;0.00;;;;;22.65;100.00;100168.31;5025100;28;45478;-86
2023/08/01 01:45:22;;;;;;;;;0.00;0.00;;;;;22.58;100.00;100165.03;5030337;28;45393;-85
2023/08/01 01:47:47;;;;;;;;;0.00;0.00;;;;;22.53;100.00;100172.50;5017186;28;71028;-85
2023/08/01 01:50:13;;;;;;;;;0.00;0.00;;;;;22.56;100.00;100183.09;5010636;28;68178;-85
2023/08/01 01:52:38;;;;;;;;;0.00;0.00;;;;;22.57;100.00;100184.81;5029364;28;45377;-85
2023/08/01 01:55:04;;;;;;;;;0.00;0.00;;;;;22.62;100.00;100193.56;5033152;28;45429;-85
2023/08/01 01:57:29;;;;;;;;;0.00;0.00;;;;;22.58;100.00;100186.56;5020627;28;47327;-84
2023/08/01 01:59:54;;;;;;;;;1.00;0.00;;;;;22.55;100.00;100183.19;5025545;28;45222;-85
2023/08/01 02:02:20;;;;;;;;;0.00;0.00;;;;;22.43;100.00;100180.13;5027187;28;46495;-85
2023/08/01 02:04:50;;;;;;;;;0.67;0.67;;;;;22.53;100.00;100185.03;5014619;28;57801;-86
2023/08/01 02:07:15;;;;;;;;;0.00;0.00;;;;;22.49;100.00;100184.34;5022083;28;46558;-84
2023/08/01 02:09:40;;;;;;;;;1.33;1.33;;;;;22.45;100.00;100167.47;5028370;28;45329;-84
2023/08/01 02:12:08;;;;;;;;;2.00;2.00;;;;;22.42;100.00;100178.38;5025541;28;61294;-85
2023/08/01 02:14:33;;;;;;;;;1.00;1.00;;;;;22.36;100.00;100184.03;5025415;28;45505;-85
2023/08/01 02:16:58;;;;;;;;;1.00;1.00;;;;;22.26;100.00;100196.19;5017960;28;71914;-84
2023/08/01 02:19:24;;;;;;;;;2.00;1.00;;;;;22.23;100.00;100196.34;5026238;28;61637;-85
2023/08/01 02:21:49;;;;;;;;;1.00;1.00;;;;;22.27;100.00;100194.41;5021990;28;58618;-85
2023/08/01 02:24:14;;;;;;;;;0.67;0.67;;;;;22.23;100.00;100186.47;5024584;28;60208;-85
2023/08/01 02:26:40;;;;;;;;;0.00;0.00;;;;;22.24;100.00;100198.09;5039876;28;47278;-86
2023/08/01 02:29:05;;;;;;;;;1.00;1.00;;;;;22.25;100.00;100210.59;5025320;28;57344;-85
2023/08/01 02:31:30;;;;;;;;;1.00;1.00;;;;;22.22;100.00;100205.38;5034380;28;63650;-85
2023/08/01 02:33:56;;;;;;;;;0.00;0.00;;;;;22.21;100.00;100196.44;5033668;28;59571;-84
2023/08/01 02:36:21;;;;;;;;;1.00;1.00;;;;;22.24;100.00;100198.09;5030909;28;45694;-84
2023/08/01 02:38:47;;;;;;;;;0.00;0.00;;;;;22.35;100.00;100209.22;5037250;28;45385;-86
2023/08/01 02:41:12;;;;;;;;;1.67;1.33;;;;;22.26;100.00;100206.06;5039141;28;45504;-84
2023/08/01 02:43:37;;;;;;;;;1.00;1.00;;;;;22.27;100.00;100208.72;5022122;28;56257;-85
2023/08/01 02:46:03;;;;;;;;;2.33;1.33;;;;;22.27;100.00;100218.59;5004510;28;48363;-85
2023/08/01 02:48:28;;;;;;;;;1.67;1.67;;;;;22.23;100.00;100212.50;5027770;28;52542;-83
2023/08/01 02:50:53;;;;;;;;;1.33;1.33;;;;;22.13;100.00;100208.47;5032456;28;45239;-85
2023/08/01 02:53:19;;;;;;;;;2.00;2.00;;;;;22.02;100.00;100224.22;5026568;28;58411;-85
2023/08/01 02:55:46;;;;;;;;;1.67;1.67;;;;;21.96;100.00;100218.16;5036628;28;56112;-83
2023/08/01 02:58:12;;;;;;;;;2.67;2.67;;;;;21.95;100.00;100232.56;5031801;28;45402;-84
2023/08/01 03:00:39;;;;;;;;;4.00;1.00;;;;;21.92;100.00;100234.50;5016427;28;45319;-84
2023/08/01 03:03:04;;;;;;;;;3.00;3.00;;;;;21.87;100.00;100228.47;5031725;28;45475;-84
2023/08/01 03:05:29;;;;;;;;;2.00;2.00;;;;;21.84;100.00;100242.03;5019686;28;67918;-86
2023/08/01 03:07:55;;;;;;;;;0.00;0.00;;;;;21.82;100.00;100239.41;5033799;28;67161;-85
2023/08/01 03:10:20;;;;;;;;;2.33;2.33;;;;;21.77;100.00;100244.13;5036494;28;59157;-86
2023/08/01 03:12:45;;;;;;;;;3.00;3.00;;;;;21.81;100.00;100245.75;5036268;28;45445;-85
2023/08/01 03:15:11;;;;;;;;;2.00;2.00;;;;;21.82;100.00;100249.28;5035356;28;62688;-86
2023/08/01 03:17:36;;;;;;;;;2.00;2.00;;;;;21.85;100.00;100252.72;5034236;28;45481;-85
2023/08/01 03:20:01;;;;;;;;;2.00;1.67;;;;;21.86;100.00;100248.22;5027227;28;58284;-86
2023/08/01 03:22:27;;;;;;;;;4.00;2.00;;;;;21.84;100.00;100239.34;5035451;28;45560;-84
2023/08/01 03:24:52;;;;;;;;;3.67;1.67;;;;;21.86;100.00;100249.09;5028022;28;58353;-86
2023/08/01 03:27:18;;;;;;;;;2.00;2.00;;;;;21.81;100.00;100256.50;5035284;28;61814;-85
2023/08/01 03:29:43;;;;;;;;;2.33;1.67;;;;;21.82;100.00;100249.28;5012028;28;45450;-85
2023/08/01 03:32:08;;;;;;;;;2.00;2.00;;;;;21.83;100.00;100254.59;5034656;28;45222;-84
2023/08/01 03:34:34;;;;;;;;;2.00;2.00;;;;;21.83;100.00;100259.97;5020103;28;63215;-84
2023/08/01 03:36:59;;;;;;;;;2.67;2.00;;;;;21.83;100.00;100267.16;5005786;28;45424;-87
2023/08/01 03:39:24;;;;;;;;;2.67;2.67;;;;;21.80;100.00;100267.31;5027014;28;45211;-86
2023/08/01 03:41:50;;;;;;;;;2.00;2.00;;;;;21.80;100.00;100264.63;5036614;28;45347;-83
2023/08/01 03:44:16;;;;;;;;;1.67;1.67;;;;;21.81;100.00;100271.75;5037000;28;46449;-86
2023/08/01 03:46:42;;;;;;;;;1.00;1.00;;;;;21.66;100.00;100258.03;5035836;28;45367;-85
2023/08/01 03:49:08;;;;;;;;;2.00;1.00;;;;;21.63;100.00;100263.56;5031428;28;45451;-85
2023/08/01 03:51:33;;;;;;;;;1.33;1.00;;;;;21.56;100.00;100266.56;5021055;28;45457;-86
2023/08/01 03:53:58;;;;;;;;;2.33;2.00;;;;;21.54;100.00;100276.50;5026018;28;64650;-85
2023/08/01 03:56:24;;;;;;;;;3.00;3.00;;;;;21.47;100.00;100278.59;5031190;28;62301;-87
2023/08/01 03:58:49;;;;;;;;;2.33;2.00;;;;;21.42;100.00;100270.72;5031084;28;45239;-86
2023/08/01 04:01:14;;;;;;;;;1.00;1.00;;;;;21.38;100.00;100290.59;5035887;28;57246;-84
2023/08/01 04:03:40;;;;;;;;;1.33;1.33;;;;;21.32;100.00;100273.88;5028342;28;46014;-86
2023/08/01 04:06:05;;;;;;;;;3.00;1.00;;;;;21.38;100.00;100270.91;5030279;28;45314;-85
2023/08/01 04:08:30;;;;;;;;;2.33;2.33;;;;;21.31;100.00;100278.38;5036990;28;61311;-86
2023/08/01 04:10:56;;;;;;;;;4.00;3.00;;;;;21.34;100.00;100282.72;5022372;28;45237;-85
2023/08/01 04:13:21;;;;;;;;;2.33;2.33;;;;;21.41;100.00;100285.09;5032822;28;65183;-85
2023/08/01 04:15:47;;;;;;;;;2.33;2.33;;;;;21.36;100.00;100275.47;5026925;28;45234;-86
2023/08/01 04:18:13;;;;;;;;;4.00;2.00;;;;;21.36;100.00;100276.38;5030241;28;45348;-84
2023/08/01 04:20:38;;;;;;;;;5.67;2.00;;;;;21.39;100.00;100273.53;5034801;28;59310;-85
2023/08/01 04:23:03;;;;;;;;;2.33;2.33;;;;;21.37;100.00;100272.75;5026569;28;67608;-86
2023/08/01 04:25:29;;;;;;;;;3.00;1.67;;;;;21.35;100.00;100266.53;5031822;28;64168;-86
2023/08/01 04:27:54;;;;;;;;;3.67;2.33;;;;;21.35;100.00;100266.53;5025683;28;45597;-87
2023/08/01 04:30:19;;;;;;;;;3.00;3.00;;;;;21.34;100.00;100280.03;5033547;28;51973;-84
2023/08/01 04:32:45;;;;;;;;;4.00;3.00;;;;;21.30;100.00;100271.22;5035096;28;65943;-84
2023/08/01 04:35:10;;;;;;;;;4.33;3.00;;;;;21.24;100.00;100267.91;5034981;28;45490;-84
2023/08/01 04:37:35;;;;;;;;;2.67;2.00;;;;;21.24;100.00;100265.22;5035424;28;45454;-86
2023/08/01 04:40:01;;;;;;;;;3.00;3.00;;;;;21.26;100.00;100266.03;5023681;28;48101;-85
2023/08/01 04:42:27;;;;;;;;;4.00;4.00;;;;;21.25;100.00;100267.81;5031954;28;46582;-85
2023/08/01 04:44:52;;;;;;;;;3.00;3.00;;;;;21.29;100.00;100266.75;5024583;28;45436;-85
2023/08/01 04:47:19;;;;;;;;;3.00;3.00;;;;;21.34;100.00;100266.59;5020207;28;49414;-86
2023/08/01 04:49:44;;;;;;;;;2.00;2.00;;;;;21.28;100.00;100266.84;5012348;28;45523;-85
2023/08/01 04:52:09;;;;;;;;;2.00;2.00;;;;;21.30;100.00;100276.59;5023174;28;46727;-86
2023/08/01 04:54:35;;;;;;;;;3.00;3.00;;;;;21.31;100.00;100275.69;5029337;28;65304;-84
2023/08/01 04:57:00;;;;;;;;;3.00;3.00;;;;;21.35;100.00;100273.72;5029581;28;55957;-85
2023/08/01 04:59:25;;;;;;;;;4.00;3.00;;;;;21.34;100.00;100270.16;5012420;28;49190;-85
2023/08/01 05:01:50;;;;;;;;;3.00;3.00;;;;;21.39;100.00;100275.34;5023765;28;56403;-86
2023/08/01 05:04:16;;;;;;;;;4.00;3.00;;;;;21.39;100.00;100275.34;5021314;28;45315;-85
2023/08/01 05:06:41;;;;;;;;;6.00;3.00;;;;;21.31;100.00;100273.00;5022639;28;45688;-85
2023/08/01 05:09:07;;;;;;;;;3.67;3.00;;;;;21.35;100.00;100274.59;5018647;28;45425;-86
2023/08/01 05:11:32;;;;;;;;;4.33;3.00;;;;;21.35;100.00;100274.59;5032588;28;66263;-86
2023/08/01 05:13:57;;;;;;;;;3.00;3.00;;;;;21.43;100.00;100287.72;5032460;28;66944;-85
2023/08/01 05:16:23;;;;;;;;;2.33;2.33;;;;;21.44;100.00;100284.09;5033342;28;53378;-86
2023/08/01 05:18:48;;;;;;;;;3.00;3.00;;;;;21.45;100.00;100297.44;5036276;28;45283;-85
2023/08/01 05:21:13;;;;;;;;;4.33;4.33;;;;;21.50;100.00;100291.88;5142595;22;63623;-85
2023/08/01 05:23:38;;;;;;;;;5.33;3.00;;;;;21.49;100.00;100284.75;5034182;28;67334;-85
2023/08/01 05:26:04;;;;;;;;;4.33;3.00;;;;;21.50;100.00;100291.00;5030452;28;64327;-85
2023/08/01 05:28:29;;;;;;;;;3.33;0.00;;;;;21.48;100.00;100292.91;5033885;28;52228;-85
2023/08/01 05:30:54;;;;;;;;;3.67;3.00;;;;;21.47;100.00;100296.53;5034343;28;68145;-84
2023/08/01 05:33:20;;;;;;;;;5.00;3.33;;;;;21.48;100.00;100299.13;5034636;28;60595;-85
2023/08/01 05:35:45;;;;;;;;;5.00;3.00;;;;;21.52;100.00;100307.91;5018827;28;45488;-86
2023/08/01 05:38:10;;;;;;;;;6.00;4.00;;;;;21.52;100.00;100302.53;5035716;28;54155;-84
2023/08/01 05:40:36;;;;;;;;;5.00;3.00;;;;;21.62;100.00;100299.41;5034500;28;48480;-86
2023/08/01 05:43:03;;;;;;;;;4.00;3.00;;;;;21.46;100.00;100314.44;5034367;28;55377;-85
2023/08/01 05:45:29;;;;;;;;;3.67;3.67;;;;;21.42;100.00;100313.72;5033048;28;45437;-85
2023/08/01 05:47:54;;;;;;;;;6.33;3.67;;;;;21.47;100.00;100318.88;5034641;28;57187;-84
2023/08/01 05:50:19;;;;;;;;;3.00;2.00;;;;;21.49;100.00;100316.13;5035895;28;46781;-84
2023/08/01 05:52:45;;;;;;;;;3.67;3.67;;;;;21.52;100.00;100306.13;5037643;28;66134;-85
2023/08/01 05:55:10;;;;;;;;;4.00;4.00;;;;;21.54;100.00;100319.50;5039285;28;47676;-85
2023/08/01 05:57:36;;;;;;;;;2.00;2.00;;;;;21.58;100.00;100315.75;5038863;28;57090;-86
2023/08/01 06:00:01;;;;;;;;;2.00;1.00;;;;;21.53;100.00;100317.75;5004836;28;48760;-86
2023/08/01 06:02:27;;;;;;;;;3.00;3.00;;;;;21.54;100.00;100319.50;5031188;28;61763;-84
2023/08/01 06:04:52;;;;;;;;;5.00;4.00;;;;;21.67;100.00;100307.28;5037716;28;45510;-85
2023/08/01 06:07:22;;;;;;;;;4.00;4.00;;;;;21.68;100.00;100311.72;5038572;28;51395;-86
2023/08/01 06:09:48;;;;;;;;;3.00;3.00;;;;;21.68;100.00;100300.97;5037914;28;45652;-85
2023/08/01 06:12:14;;;;;;;;;6.00;4.00;;;;;21.64;100.00;100308.28;5037985;28;45488;-85
2023/08/01 06:14:39;;;;;;;;;4.33;3.00;;;;;21.58;100.00;100307.69;5037115;28;61588;-86
2023/08/01 06:17:04;;;;;;;;;5.33;3.00;;;;;21.51;100.00;100306.19;5031731;28;45380;-85
2023/08/01 06:19:30;;;;;;;;;8.00;4.00;;;;;21.51;100.00;100311.56;5038795;28;46697;-85
2023/08/01 06:21:55;;;;;;;;;3.00;3.00;;;;;21.42;100.00;100319.09;5023301;28;68124;-85
2023/08/01 06:24:20;;;;;;;;;4.00;3.67;;;;;21.36;100.00;100319.34;5030055;28;58983;-86
2023/08/01 06:26:46;;;;;;;;;7.67;3.67;;;;;21.44;100.00;100324.38;5038229;28;45395;-86
2023/08/01 06:29:11;;;;;;;;;8.00;5.00;;;;;21.45;100.00;100318.94;5036888;28;63184;-84
2023/08/01 06:31:36;;;;;;;;;7.67;3.33;;;;;21.45;100.00;100321.63;5018850;28;65401;-85
2023/08/01 06:34:02;;;;;;;;;3.67;3.00;;;;;21.48;100.00;100333.19;5036677;28;58503;-86
2023/08/01 06:36:27;;;;;;;;;4.33;3.33;;;;;21.55;100.00;100343.59;5036883;28;46528;-86
2023/08/01 06:38:52;;;;;;;;;6.00;4.33;;;;;21.49;100.00;100333.13;5022823;28;66392;-86
2023/08/01 06:41:18;;;;;;;;;6.00;3.00;;;;;21.54;100.00;100332.94;5037285;28;57761;-85
2023/08/01 06:43:43;;;;;;;;;5.67;3.00;;;;;21.55;100.00;100330.16;5036390;28;58685;-86
2023/08/01 06:46:09;;;;;;;;;4.33;4.33;;;;;21.71;100.00;100336.63;5036063;28;60960;-85
2023/08/01 06:48:35;;;;;;;;;3.00;3.00;;;;;21.80;100.00;100340.75;5033511;28;48600;-84
2023/08/01 06:51:01;;;;;;;;;4.67;4.67;;;;;21.90;100.00;100339.41;5036100;28;55303;-86
2023/08/01 06:53:26;;;;;;;;;6.67;4.00;;;;;21.94;100.00;100334.75;5036630;28;45325;-86
2023/08/01 06:55:52;;;;;;;;;4.33;3.00;;;;;22.09;100.00;100344.84;5036153;28;45467;-84
2023/08/01 06:58:17;;;;;;;;;6.67;4.00;;;;;22.11;100.00;100342.13;5037222;28;45911;-85
2023/08/01 07:00:44;;;;;;;;;5.00;3.33;;;;;22.09;100.00;100349.34;5018267;28;45444;-84
2023/08/01 07:03:09;;;;;;;;;5.00;3.33;;;;;22.12;100.00;100360.00;5035297;28;45178;-85
2023/08/01 07:05:34;;;;;;;;;7.00;4.00;;;;;22.14;100.00;100348.22;5036293;28;45733;-86
2023/08/01 07:08:00;;;;;;;;;5.00;3.00;;;;;22.10;100.00;100340.34;5031705;28;67125;-84
2023/08/01 07:10:25;;;;;;;;;6.00;4.00;;;;;22.06;100.00;100344.13;5035609;28;63606;-85
2023/08/01 07:12:50;;;;;;;;;4.00;4.00;;;;;21.95;100.00;100340.09;5035751;28;45449;-85
2023/08/01 07:15:16;;;;;;;;;8.33;6.00;;;;;21.97;100.00;100340.00;5034990;28;60216;-85
2023/08/01 07:17:41;;;;;;;;;5.67;3.67;;;;;21.88;100.00;100352.03;5028342;28;45470;-85
2023/08/01 07:21:51;;;;;;;;;4.00;4.00;;;;;21.82;100.00;100349.59;5058365;27;45358;-84
2023/08/01 07:24:16;;;;;;;;;5.00;4.00;;;;;22.01;100.00;100362.28;5031147;27;53424;-84
2023/08/01 07:26:41;;;;;;;;;5.00;4.00;;;;;22.15;100.00;100368.78;5031413;27;46568;-84
2023/08/01 07:29:11;;;;;;;;;7.00;4.00;;;;;22.21;100.00;100359.59;5016880;28;60648;-85
2023/08/01 07:31:36;;;;;;;;;4.00;3.67;;;;;22.35;100.00;100367.91;5015063;27;47654;-84
2023/08/01 07:34:02;;;;;;;;;6.00;4.00;;;;;22.44;100.00;100363.94;5049179;27;45491;-84
2023/08/01 07:36:27;;;;;;;;;4.00;4.00;;;;;22.47;100.00;100375.41;5035169;27;65321;-84
2023/08/01 07:38:53;;;;;;;;;5.33;5.00;;;;;22.46;100.00;100357.53;5044349;27;52308;-84
2023/08/01 07:41:18;;;;;;;;;6.00;3.33;;;;;22.52;100.00;100364.47;5019571;27;46444;-86
2023/08/01 07:43:44;;;;;;;;;8.33;4.67;;;;;22.51;100.00;100367.22;5034057;27;51607;-86
2023/08/01 07:46:11;;;;;;;;;5.33;4.00;;;;;22.62;100.00;100381.06;5040655;27;60010;-85
2023/08/01 07:48:36;;;;;;;;;4.67;4.67;;;;;22.65;100.00;100367.47;5035112;27;45489;-84
2023/08/01 07:51:03;;;;;;;;;6.33;5.00;;;;;22.70;100.00;100378.91;5017972;27;64439;-85
2023/08/01 07:53:28;;;;;;;;;3.00;3.00;;;;;22.75;100.00;100374.19;5020653;28;45368;-84
2023/08/01 07:55:53;;;;;;;;;6.00;4.00;;;;;22.81;100.00;100368.50;5022706;27;61161;-84
2023/08/01 07:58:19;;;;;;;;;3.00;3.00;;;;;22.90;100.00;100367.22;5048278;27;61082;-85
2023/08/01 08:00:44;;;;;;;;;6.00;4.33;;;;;22.94;100.00;100371.50;5048089;27;66037;-83
2023/08/01 08:03:09;;;;;;;;;7.00;3.33;;;;;22.97;100.00;100364.16;5036721;27;45379;-85
2023/08/01 08:05:38;;;;;;;;;4.00;4.00;;;;;22.97;100.00;100376.75;5046368;27;45259;-85
2023/08/01 08:08:04;;;;;;;;;7.00;4.00;;;;;22.91;100.00;100377.94;5013307;27;46470;-83
2023/08/01 08:10:29;;;;;;;;;6.67;3.00;;;;;22.92;100.00;100379.66;5047848;27;48156;-84
2023/08/01 08:12:55;;;;;;;;;4.33;3.33;;;;;22.86;100.00;100355.69;5047442;27;66303;-85
2023/08/01 08:15:20;;;;;;;;;4.00;4.00;;;;;22.93;100.00;100378.72;5042919;27;45425;-84
2023/08/01 08:17:45;;;;;;;;;4.67;3.67;;;;;22.99;100.00;100373.03;5046600;27;61238;-83
2023/08/01 08:20:11;;;;;;;;;6.67;3.33;;;;;23.07;100.00;100374.50;5039103;27;70753;-85
2023/08/01 08:22:36;;;;;;;;;3.33;3.33;;;;;23.09;100.00;100386.06;5041343;27;62492;-85
2023/08/01 08:25:01;;;;;;;;;4.00;3.00;;;;;23.06;100.00;100391.59;5047818;27;60934;-83
2023/08/01 08:27:27;;;;;;;;;6.00;3.33;;;;;23.07;100.00;100390.66;5045849;27;45211;-83
2023/08/01 08:29:52;;;;;;;;;3.00;3.00;;;;;23.14;100.00;100392.13;5030059;27;65178;-84
2023/08/01 08:32:17;;;;;;;;;4.33;3.00;;;;;23.14;100.00;100387.59;5039067;28;54369;-84
2023/08/01 08:34:43;;;;;;;;;4.67;4.33;;;;;23.23;100.00;100384.47;5035564;27;45275;-83
2023/08/01 08:37:08;;;;;;;;;8.33;2.67;;;;;23.38;100.00;100374.72;5013047;27;64532;-83
2023/08/01 08:39:33;;;;;;;;;5.33;2.33;;;;;23.44;100.00;100387.94;5008658;28;67600;-83
2023/08/01 08:41:59;;;;;;;;;4.33;2.33;;;;;23.58;100.00;100389.06;5022684;27;45417;-84
2023/08/01 08:44:24;;;;;;;;;5.33;2.00;;;;;23.60;100.00;100382.66;5039444;28;63450;-85
2023/08/01 08:46:54;;;;;;;;;4.33;3.33;;;;;23.67;100.00;100386.81;4987686;28;45423;-84
2023/08/01 08:49:21;;;;;;;;;5.67;3.33;;;;;23.71;100.00;100395.63;5018246;27;46666;-83
2023/08/01 08:51:47;;;;;;;;;2.67;2.67;;;;;23.75;100.00;100387.28;5013585;27;45363;-84
2023/08/01 08:54:13;;;;;;;;;2.33;2.00;;;;;23.81;100.00;100391.53;5004164;27;45452;-83
2023/08/01 08:56:40;;;;;;;;;2.67;2.67;;;;;23.88;100.00;100389.38;5031535;27;45434;-84
2023/08/01 08:59:07;;;;;;;;;5.00;3.33;;;;;23.94;100.00;100383.66;5010078;27;46928;-83
2023/08/01 09:01:32;;;;;;;;;2.67;2.67;;;;;24.02;100.00;100384.13;5017791;28;45400;-83
2023/08/01 09:03:58;;;;;;;;;5.00;3.00;;;;;24.15;100.00;100397.88;5021623;28;45346;-83
2023/08/01 09:06:40;;;;;;;;;3.67;3.00;;;;;24.16;100.00;100378.03;5035873;27;45479;-85
2023/08/01 09:09:13;;;;;;;;;6.67;2.00;;;;;24.22;100.00;100383.97;5015723;27;46861;-85
2023/08/01 09:11:42;;;;;;;;;2.00;2.00;;;;;24.11;100.00;100372.88;5021593;28;45277;-83
2023/08/01 09:14:07;;;;;;;;;5.00;3.33;;;;;24.15;100.00;100373.59;4996139;28;45376;-84
2023/08/01 09:16:33;;;;;;;;;3.00;3.00;;;;;24.27;100.00;100375.63;5034763;27;45449;-83
2023/08/01 09:18:58;;;;;;;;;4.00;2.00;;;;;24.22;100.00;100378.56;5030760;27;45661;-85
2023/08/01 09:21:24;;;;;;;;;6.00;2.00;;;;;24.18;100.00;100381.50;5008731;27;56901;-84
2023/08/01 09:23:50;;;;;;;;;7.00;4.00;;;;;24.20;100.00;100364.28;5016996;28;45407;-83
2023/08/01 09:26:16;;;;;;;;;3.67;2.33;;;;;24.13;100.00;100367.38;5028715;27;45379;-86
2023/08/01 09:28:42;;;;;;;;;5.67;2.33;;;;;23.96;100.00;100379.91;5033762;27;45245;-84
2023/08/01 09:31:07;;;;;;;;;3.00;3.00;;;;;24.00;100.00;100391.44;5016010;28;45467;-84
2023/08/01 09:33:42;;;;;;;;;2.33;2.00;;;;;24.14;100.00;100385.34;5033381;27;65274;-84
2023/08/01 09:36:08;;;;;;;;;2.67;2.00;;;;;24.19;100.00;100383.28;5000437;27;55036;-83
2023/08/01 09:38:35;;;;;;;;;3.33;2.33;;;;;24.34;100.00;100387.81;5015904;27;46439;-83
2023/08/01 09:41:00;;;;;;;;;2.00;2.00;;;;;24.51;100.00;100401.34;5000429;28;46546;-84
2023/08/01 09:43:34;;;;;;;;;6.00;3.00;;;;;24.65;100.00;100380.81;5020504;27;45438;-82
2023/08/01 09:46:00;;;;;;;;;6.00;2.33;;;;;24.68;100.00;100381.53;5023797;27;45403;-83
2023/08/01 09:48:26;;;;;;;;;5.67;2.00;;;;;24.78;100.00;100371.09;4988613;28;73853;-83
2023/08/01 09:50:53;;;;;;;;;2.67;2.00;;;;;24.75;100.00;100374.84;5001458;27;45498;-85
2023/08/01 09:53:18;;;;;;;;;2.67;2.00;;;;;24.76;100.00;100389.19;5017385;27;45483;-84
2023/08/01 09:55:46;;;;;;;;;4.00;2.33;;;;;24.77;100.00;100370.25;5015245;27;65349;-84
2023/08/01 09:58:13;;;;;;;;;3.00;1.33;;;;;24.74;100.00;100378.50;5016500;28;47938;-83
2023/08/01 10:00:39;;;;;;;;;3.00;3.00;;;;;24.81;100.00;100379.03;5033801;27;45466;-84
2023/08/01 10:03:05;;;;;;;;;2.00;2.00;;;;;24.83;100.00;100379.81;5039624;28;63317;-83
2023/08/01 10:05:32;;;;;;;;;4.33;2.67;;;;;24.76;100.00;100390.06;5013340;28;45664;-83
2023/08/01 10:08:00;;;;;;;;;7.33;3.00;;;;;24.67;100.00;100387.03;5033893;27;46514;-83
2023/08/01 10:10:26;;;;;;;;;4.00;2.00;;;;;24.53;100.00;100383.22;5016308;27;45752;-83
2023/08/01 10:12:52;;;;;;;;;4.00;2.67;;;;;24.52;100.00;100386.91;5021998;27;45352;-83
2023/08/01 10:15:17;;;;;;;;;2.67;2.33;;;;;24.44;100.00;100393.66;5006811;27;45212;-84
2023/08/01 10:17:44;;;;;;;;;2.33;2.33;;;;;24.57;100.00;100394.75;5015601;28;65362;-83
2023/08/01 10:20:10;;;;;;;;;3.67;2.00;;;;;24.58;100.00;100401.00;5007956;27;45334;-84
2023/08/01 10:22:35;;;;;;;;;2.00;2.00;;;;;24.61;100.00;100406.22;5031056;27;45334;-83
2023/08/01 10:25:01;;;;;;;;;0.33;0.00;;;;;24.68;100.00;100392.34;5030987;27;62129;-83
2023/08/01 10:27:26;;;;;;;;;3.67;2.00;;;;;24.85;100.00;100393.25;5009023;28;52415;-83
2023/08/01 10:29:59;;;;;;;;;3.33;2.00;;;;;25.05;100.00;100380.38;5030510;27;45408;-83
2023/08/01 10:32:32;;;;;;;;;7.67;2.00;;;;;25.21;100.00;100379.53;5014737;27;45449;-84
2023/08/01 10:34:58;;;;;;;;;4.00;2.00;;;;;25.29;100.00;100370.00;5016416;27;45446;-83
2023/08/01 10:37:23;;;;;;;;;5.67;3.00;;;;;25.24;100.00;100374.81;5073588;27;47453;-82
2023/08/01 10:39:59;;;;;;;;;4.00;1.00;;;;;25.24;100.00;100369.41;5050656;27;60169;-83
2023/08/01 10:42:25;;;;;;;;;3.33;2.00;;;;;25.31;100.00;100383.47;5015054;27;45439;-84
2023/08/01 10:44:50;;;;;;;;;3.00;1.00;;;;;25.46;100.00;100373.56;5005201;28;45469;-83
2023/08/01 10:47:26;;;;;;;;;2.67;2.00;;;;;25.62;100.00;100379.84;5016587;27;65610;-83
2023/08/01 10:49:51;;;;;;;;;4.33;2.00;;;;;25.74;100.00;100402.59;5008473;28;45448;-83
2023/08/01 10:52:26;;;;;;;;;2.00;2.00;;;;;25.73;100.00;100385.50;5021632;28;66957;-83
2023/08/01 10:54:59;;;;;;;;;2.67;2.67;;;;;25.67;100.00;100380.44;5023298;27;45428;-85
2023/08/01 10:57:30;;;;;;;;;3.33;2.00;;;;;25.52;100.00;100395.75;5003272;27;45524;-85
2023/08/01 10:59:58;;;;;;;;;5.67;2.00;;;;;25.39;100.00;100388.41;5050360;27;46650;-84
2023/08/01 11:02:28;;;;;;;;;1.00;1.00;;;;;25.38;100.00;100389.38;5034800;27;45210;-84
2023/08/01 11:04:57;;;;;;;;;3.33;2.00;;;;;25.42;100.00;100394.53;5025241;28;45636;-84
2023/08/01 11:07:23;;;;;;;;;3.33;2.00;;;;;25.56;100.00;100382.88;5014788;27;46567;-84
2023/08/01 11:09:48;;;;;;;;;2.00;2.00;;;;;25.82;100.00;100390.38;5008996;27;45426;-82
2023/08/01 11:12:13;;;;;;;;;1.00;1.00;;;;;25.96;100.00;100391.41;5000121;28;61693;-84